sensor_id;sensor_type;location;lat;lon;timestamp;pressure;altitude;pressure_sealevel;temperature;humidity
75815;BME280;64451;45.574;14.224;2022-11-30T00:01:22;96861.97;;;2.26;69.34
75815;BME280;64451;45.574;14.224;2022-11-30T00:03:23;96853.09;;;2.20;69.77
75815;BME280;64451;45.574;14.224;2022-11-30T00:05:23;96852.97;;;2.27;69.11
75815;BME280;64451;45.574;14.224;2022-11-30T00:07:24;96857.59;;;2.20;70.28
75815;BME280;64451;45.574;14.224;2022-11-30T00:09:24;96850.66;;;2.19;70.45
75815;BME280;64451;45.574;14.224;2022-11-30T00:11:26;96862.66;;;2.21;69.58
75815;BME280;64451;45.574;14.224;2022-11-30T00:13:27;96856.97;;;2.30;69.60
75815;BME280;64451;45.574;14.224;2022-11-30T00:15:27;96866.47;;;2.25;69.91
75815;BME280;64451;45.574;14.224;2022-11-30T00:17:28;96858.97;;;2.22;70.01
75815;BME280;64451;45.574;14.224;2022-11-30T00:19:28;96854.13;;;2.19;70.14
75815;BME280;64451;45.574;14.224;2022-11-30T00:21:28;96838.53;;;2.23;69.66
75815;BME280;64451;45.574;14.224;2022-11-30T00:23:33;96857.69;;;2.25;69.62
75815;BME280;64451;45.574;14.224;2022-11-30T00:25:34;96854.44;;;2.23;70.17
75815;BME280;64451;45.574;14.224;2022-11-30T00:27:35;96855.84;;;2.14;70.31
75815;BME280;64451;45.574;14.224;2022-11-30T00:29:36;96861.03;;;2.20;69.47
75815;BME280;64451;45.574;14.224;2022-11-30T00:31:36;96861.28;;;2.19;69.93
75815;BME280;64451;45.574;14.224;2022-11-30T00:33:37;96846.72;;;2.21;69.92
75815;BME280;64451;45.574;14.224;2022-11-30T00:35:38;96862.91;;;2.20;70.20
75815;BME280;64451;45.574;14.224;2022-11-30T00:37:38;96877.78;;;2.21;69.98
75815;BME280;64451;45.574;14.224;2022-11-30T00:39:38;96862.09;;;2.19;70.38
75815;BME280;64451;45.574;14.224;2022-11-30T00:41:38;96855.97;;;2.19;70.36
75815;BME280;64451;45.574;14.224;2022-11-30T00:43:39;96861.97;;;2.14;71.09
75815;BME280;64451;45.574;14.224;2022-11-30T00:45:40;96858.63;;;2.19;70.48
75815;BME280;64451;45.574;14.224;2022-11-30T00:47:40;96847.66;;;2.27;69.23
75815;BME280;64451;45.574;14.224;2022-11-30T00:49:40;96870.84;;;2.20;70.65
75815;BME280;64451;45.574;14.224;2022-11-30T00:51:41;96867.16;;;2.21;70.22
75815;BME280;64451;45.574;14.224;2022-11-30T00:53:41;96863.63;;;2.15;70.89
75815;BME280;64451;45.574;14.224;2022-11-30T00:55:42;96864.50;;;2.21;70.16
75815;BME280;64451;45.574;14.224;2022-11-30T00:57:43;96851.91;;;2.28;68.84
75815;BME280;64451;45.574;14.224;2022-11-30T00:59:43;96851.16;;;2.16;70.43
75815;BME280;64451;45.574;14.224;2022-11-30T01:01:43;96853.66;;;2.22;69.94
75815;BME280;64451;45.574;14.224;2022-11-30T01:03:43;96848.50;;;2.16;70.40
75815;BME280;64451;45.574;14.224;2022-11-30T01:05:44;96857.03;;;2.18;70.06
75815;BME280;64451;45.574;14.224;2022-11-30T01:07:45;96843.25;;;2.21;69.75
75815;BME280;64451;45.574;14.224;2022-11-30T01:09:45;96849.63;;;2.20;69.75
75815;BME280;64451;45.574;14.224;2022-11-30T01:11:46;96855.97;;;2.19;70.45
75815;BME280;64451;45.574;14.224;2022-11-30T01:13:46;96840.28;;;2.17;70.15
75815;BME280;64451;45.574;14.224;2022-11-30T01:15:46;96845.84;;;2.16;70.45
75815;BME280;64451;45.574;14.224;2022-11-30T01:17:47;96845.66;;;2.34;68.85
75815;BME280;64451;45.574;14.224;2022-11-30T01:19:47;96854.44;;;2.23;70.16
75815;BME280;64451;45.574;14.224;2022-11-30T01:21:48;96862.34;;;2.18;70.16
75815;BME280;64451;45.574;14.224;2022-11-30T01:23:48;96874.22;;;2.15;70.42
75815;BME280;64451;45.574;14.224;2022-11-30T01:25:53;96872.16;;;2.06;70.74
75815;BME280;64451;45.574;14.224;2022-11-30T01:27:54;96867.88;;;2.16;69.44
75815;BME280;64451;45.574;14.224;2022-11-30T01:29:54;96862.66;;;2.21;69.89
75815;BME280;64451;45.574;14.224;2022-11-30T01:31:54;96867.97;;;2.21;69.67
75815;BME280;64451;45.574;14.224;2022-11-30T01:33:55;96852.75;;;2.17;69.91
75815;BME280;64451;45.574;14.224;2022-11-30T01:36:06;96845.91;;;2.21;70.00
75815;BME280;64451;45.574;14.224;2022-11-30T01:38:06;96844.19;;;2.27;69.43
75815;BME280;64451;45.574;14.224;2022-11-30T01:40:08;96851.31;;;2.38;69.11
75815;BME280;64451;45.574;14.224;2022-11-30T01:42:16;96881.81;;;2.35;68.73
75815;BME280;64451;45.574;14.224;2022-11-30T01:46:22;96875.59;;;2.18;70.77
75815;BME280;64451;45.574;14.224;2022-11-30T01:48:23;96874.09;;;2.22;70.28
75815;BME280;64451;45.574;14.224;2022-11-30T01:50:29;96867.53;;;2.13;70.64
75815;BME280;64451;45.574;14.224;2022-11-30T01:52:36;96864.97;;;2.18;71.24
75815;BME280;64451;45.574;14.224;2022-11-30T01:55:17;96860.94;;;2.27;70.35
75815;BME280;64451;45.574;14.224;2022-11-30T01:57:19;96850.34;;;2.15;71.00
75815;BME280;64451;45.574;14.224;2022-11-30T01:59:23;96848.34;;;2.22;70.71
75815;BME280;64451;45.574;14.224;2022-11-30T02:01:24;96864.13;;;2.29;70.36
75815;BME280;64451;45.574;14.224;2022-11-30T02:03:33;96854.25;;;2.24;70.49
75815;BME280;64451;45.574;14.224;2022-11-30T02:05:37;96852.16;;;2.27;70.49
75815;BME280;64451;45.574;14.224;2022-11-30T02:07:38;96846.28;;;2.24;69.98
75815;BME280;64451;45.574;14.224;2022-11-30T02:09:42;96847.28;;;2.35;69.34
75815;BME280;64451;45.574;14.224;2022-11-30T02:11:42;96851.97;;;2.45;68.97
75815;BME280;64451;45.574;14.224;2022-11-30T02:14:00;96834.81;;;2.36;69.57
75815;BME280;64451;45.574;14.224;2022-11-30T02:18:13;96824.88;;;2.31;69.58
75815;BME280;64451;45.574;14.224;2022-11-30T02:23:23;96837.13;;;2.32;69.92
75815;BME280;64451;45.574;14.224;2022-11-30T02:30:10;96819.56;;;2.31;70.53
75815;BME280;64451;45.574;14.224;2022-11-30T02:32:20;96825.00;;;2.36;69.59
75815;BME280;64451;45.574;14.224;2022-11-30T02:34:24;96795.28;;;2.39;69.93
75815;BME280;64451;45.574;14.224;2022-11-30T02:36:27;96830.88;;;2.38;70.20
75815;BME280;64451;45.574;14.224;2022-11-30T02:38:28;96824.75;;;2.38;69.92
75815;BME280;64451;45.574;14.224;2022-11-30T02:40:29;96826.16;;;2.40;70.14
75815;BME280;64451;45.574;14.224;2022-11-30T02:42:30;96831.72;;;2.56;68.14
75815;BME280;64451;45.574;14.224;2022-11-30T02:44:30;96829.22;;;2.49;68.81
75815;BME280;64451;45.574;14.224;2022-11-30T02:49:30;96826.53;;;2.61;68.19
75815;BME280;64451;45.574;14.224;2022-11-30T02:51:33;96842.34;;;2.56;68.89
75815;BME280;64451;45.574;14.224;2022-11-30T02:53:35;96818.81;;;2.47;69.10
75815;BME280;64451;45.574;14.224;2022-11-30T02:55:36;96822.16;;;2.54;68.25
75815;BME280;64451;45.574;14.224;2022-11-30T02:57:36;96829.19;;;2.61;68.13
75815;BME280;64451;45.574;14.224;2022-11-30T02:59:37;96831.59;;;2.62;67.86
75815;BME280;64451;45.574;14.224;2022-11-30T03:01:38;96825.00;;;2.65;68.20
75815;BME280;64451;45.574;14.224;2022-11-30T03:03:39;96826.44;;;2.72;67.82
75815;BME280;64451;45.574;14.224;2022-11-30T03:05:39;96816.44;;;2.63;68.69
75815;BME280;64451;45.574;14.224;2022-11-30T03:07:40;96833.38;;;2.57;69.21
75815;BME280;64451;45.574;14.224;2022-11-30T03:09:40;96822.56;;;2.63;68.85
75815;BME280;64451;45.574;14.224;2022-11-30T03:11:40;96807.59;;;2.57;68.94
75815;BME280;64451;45.574;14.224;2022-11-30T03:13:40;96820.03;;;2.68;68.61
75815;BME280;64451;45.574;14.224;2022-11-30T03:15:41;96804.88;;;2.69;68.55
75815;BME280;64451;45.574;14.224;2022-11-30T03:17:41;96820.56;;;2.70;68.66
75815;BME280;64451;45.574;14.224;2022-11-30T03:19:41;96814.03;;;2.61;69.44
75815;BME280;64451;45.574;14.224;2022-11-30T03:21:42;96808.25;;;2.64;69.50
75815;BME280;64451;45.574;14.224;2022-11-30T03:23:42;96819.22;;;2.68;69.37
75815;BME280;64451;45.574;14.224;2022-11-30T03:25:42;96822.31;;;2.65;69.37
75815;BME280;64451;45.574;14.224;2022-11-30T03:27:43;96770.91;;;2.71;68.89
75815;BME280;64451;45.574;14.224;2022-11-30T03:29:43;96820.34;;;2.72;68.88
75815;BME280;64451;45.574;14.224;2022-11-30T03:31:43;96808.34;;;2.69;69.22
75815;BME280;64451;45.574;14.224;2022-11-30T03:33:44;96821.25;;;2.77;68.57
75815;BME280;64451;45.574;14.224;2022-11-30T03:35:44;96815.22;;;2.82;68.33
75815;BME280;64451;45.574;14.224;2022-11-30T03:37:45;96817.28;;;2.80;68.31
75815;BME280;64451;45.574;14.224;2022-11-30T03:39:46;96820.34;;;2.72;68.81
75815;BME280;64451;45.574;14.224;2022-11-30T03:41:46;96823.09;;;2.77;68.53
75815;BME280;64451;45.574;14.224;2022-11-30T03:43:47;96810.31;;;2.74;69.49
75815;BME280;64451;45.574;14.224;2022-11-30T03:45:47;96813.41;;;2.71;69.55
75815;BME280;64451;45.574;14.224;2022-11-30T03:47:47;96812.78;;;2.80;68.43
75815;BME280;64451;45.574;14.224;2022-11-30T03:49:48;96826.31;;;2.79;68.97
75815;BME280;64451;45.574;14.224;2022-11-30T03:51:48;96828.91;;;2.74;69.13
75815;BME280;64451;45.574;14.224;2022-11-30T03:53:48;96813.38;;;2.83;67.97
75815;BME280;64451;45.574;14.224;2022-11-30T03:55:53;96820.44;;;2.77;69.00
75815;BME280;64451;45.574;14.224;2022-11-30T03:57:54;96826.88;;;2.81;68.42
75815;BME280;64451;45.574;14.224;2022-11-30T03:59:54;96823.50;;;2.86;68.17
75815;BME280;64451;45.574;14.224;2022-11-30T04:01:55;96821.56;;;2.81;68.75
75815;BME280;64451;45.574;14.224;2022-11-30T04:03:55;96821.72;;;2.74;69.17
75815;BME280;64451;45.574;14.224;2022-11-30T04:05:56;96822.22;;;2.88;68.09
75815;BME280;64451;45.574;14.224;2022-11-30T04:07:57;96817.97;;;2.87;68.44
75815;BME280;64451;45.574;14.224;2022-11-30T04:09:57;96809.69;;;3.00;67.62
75815;BME280;64451;45.574;14.224;2022-11-30T04:11:57;96825.69;;;3.05;67.12
75815;BME280;64451;45.574;14.224;2022-11-30T04:13:58;96826.03;;;2.92;68.09
75815;BME280;64451;45.574;14.224;2022-11-30T04:15:58;96831.19;;;2.99;67.95
75815;BME280;64451;45.574;14.224;2022-11-30T04:17:59;96844.63;;;2.92;68.98
75815;BME280;64451;45.574;14.224;2022-11-30T04:19:59;96821.81;;;2.96;68.06
75815;BME280;64451;45.574;14.224;2022-11-30T04:21:59;96830.56;;;3.08;67.24
75815;BME280;64451;45.574;14.224;2022-11-30T04:24:00;96843.28;;;3.06;67.37
75815;BME280;64451;45.574;14.224;2022-11-30T04:26:05;96830.94;;;3.00;68.03
75815;BME280;64451;45.574;14.224;2022-11-30T04:28:06;96839.25;;;3.04;67.68
75815;BME280;64451;45.574;14.224;2022-11-30T04:30:06;96842.03;;;2.97;68.47
75815;BME280;64451;45.574;14.224;2022-11-30T04:32:07;96835.78;;;3.03;67.21
75815;BME280;64451;45.574;14.224;2022-11-30T04:34:08;96848.63;;;3.06;67.72
75815;BME280;64451;45.574;14.224;2022-11-30T04:36:16;96845.06;;;3.01;67.85
75815;BME280;64451;45.574;14.224;2022-11-30T04:38:17;96846.25;;;2.93;68.45
75815;BME280;64451;45.574;14.224;2022-11-30T04:40:20;96834.56;;;2.94;68.32
75815;BME280;64451;45.574;14.224;2022-11-30T04:42:21;96843.91;;;2.97;68.35
75815;BME280;64451;45.574;14.224;2022-11-30T04:44:21;96851.66;;;2.98;68.32
75815;BME280;64451;45.574;14.224;2022-11-30T04:46:21;96851.66;;;2.98;67.85
75815;BME280;64451;45.574;14.224;2022-11-30T04:48:22;96844.72;;;2.97;68.46
75815;BME280;64451;45.574;14.224;2022-11-30T04:50:22;96849.19;;;2.80;69.09
75815;BME280;64451;45.574;14.224;2022-11-30T04:52:22;96848.09;;;2.93;68.14
75815;BME280;64451;45.574;14.224;2022-11-30T04:54:23;96853.56;;;2.86;68.65
75815;BME280;64451;45.574;14.224;2022-11-30T04:56:23;96853.44;;;2.81;69.31
75815;BME280;64451;45.574;14.224;2022-11-30T04:58:23;96827.13;;;2.79;68.58
75815;BME280;64451;45.574;14.224;2022-11-30T05:00:24;96830.53;;;2.92;68.52
75815;BME280;64451;45.574;14.224;2022-11-30T05:02:24;96824.97;;;2.93;68.21
75815;BME280;64451;45.574;14.224;2022-11-30T05:04:24;96844.28;;;2.89;68.72
75815;BME280;64451;45.574;14.224;2022-11-30T05:06:25;96836.72;;;2.97;67.71
75815;BME280;64451;45.574;14.224;2022-11-30T05:08:26;96829.25;;;2.94;67.73
75815;BME280;64451;45.574;14.224;2022-11-30T05:10:27;96843.34;;;2.95;67.82
75815;BME280;64451;45.574;14.224;2022-11-30T05:12:27;96840.63;;;2.90;68.60
75815;BME280;64451;45.574;14.224;2022-11-30T05:14:28;96833.59;;;2.84;69.16
75815;BME280;64451;45.574;14.224;2022-11-30T05:16:28;96828.13;;;2.90;68.33
75815;BME280;64451;45.574;14.224;2022-11-30T05:18:29;96840.44;;;2.96;68.36
75815;BME280;64451;45.574;14.224;2022-11-30T05:20:30;96828.44;;;2.94;68.00
75815;BME280;64451;45.574;14.224;2022-11-30T05:22:31;96834.16;;;2.86;68.50
75815;BME280;64451;45.574;14.224;2022-11-30T05:24:34;96836.00;;;2.85;68.91
75815;BME280;64451;45.574;14.224;2022-11-30T05:26:35;96845.69;;;2.91;66.92
75815;BME280;64451;45.574;14.224;2022-11-30T05:28:35;96831.66;;;2.96;68.30
75815;BME280;64451;45.574;14.224;2022-11-30T05:30:37;96848.34;;;2.91;68.08
75815;BME280;64451;45.574;14.224;2022-11-30T05:32:38;96855.03;;;2.94;68.40
75815;BME280;64451;45.574;14.224;2022-11-30T05:34:38;96845.50;;;2.98;68.58
75815;BME280;64451;45.574;14.224;2022-11-30T05:36:39;96852.25;;;2.89;68.03
75815;BME280;64451;45.574;14.224;2022-11-30T05:38:39;96850.50;;;2.94;68.78
75815;BME280;64451;45.574;14.224;2022-11-30T05:40:39;96849.47;;;2.95;68.12
75815;BME280;64451;45.574;14.224;2022-11-30T05:42:40;96863.81;;;2.94;68.26
75815;BME280;64451;45.574;14.224;2022-11-30T05:44:40;96864.84;;;2.93;68.92
75815;BME280;64451;45.574;14.224;2022-11-30T05:46:40;96860.34;;;2.94;68.72
75815;BME280;64451;45.574;14.224;2022-11-30T05:48:41;96854.22;;;2.93;68.51
75815;BME280;64451;45.574;14.224;2022-11-30T05:50:41;96869.41;;;2.81;69.23
75815;BME280;64451;45.574;14.224;2022-11-30T05:52:41;96864.28;;;2.91;68.49
75815;BME280;64451;45.574;14.224;2022-11-30T05:54:42;96855.03;;;3.10;66.94
75815;BME280;64451;45.574;14.224;2022-11-30T05:56:42;96861.91;;;3.06;68.04
75815;BME280;64451;45.574;14.224;2022-11-30T05:58:43;96858.09;;;3.02;68.00
75815;BME280;64451;45.574;14.224;2022-11-30T06:00:44;96868.97;;;3.01;68.44
75815;BME280;64451;45.574;14.224;2022-11-30T06:02:44;96865.03;;;3.03;67.60
75815;BME280;64451;45.574;14.224;2022-11-30T06:04:45;96879.13;;;3.04;67.59
75815;BME280;64451;45.574;14.224;2022-11-30T06:06:45;96864.94;;;2.98;68.09
75815;BME280;64451;45.574;14.224;2022-11-30T06:08:47;96877.56;;;2.91;68.65
75815;BME280;64451;45.574;14.224;2022-11-30T06:10:47;96859.69;;;2.87;68.57
75815;BME280;64451;45.574;14.224;2022-11-30T06:13:15;96873.94;;;2.97;68.48
75815;BME280;64451;45.574;14.224;2022-11-30T06:16:02;96875.59;;;2.98;68.05
75815;BME280;64451;45.574;14.224;2022-11-30T06:18:00;96849.47;;;2.95;68.69
75815;BME280;64451;45.574;14.224;2022-11-30T06:20:00;96886.28;;;3.03;68.20
75815;BME280;64451;45.574;14.224;2022-11-30T06:22:00;96875.38;;;2.88;69.82
75815;BME280;64451;45.574;14.224;2022-11-30T06:24:01;96866.84;;;2.86;69.80
75815;BME280;64451;45.574;14.224;2022-11-30T06:26:03;96889.91;;;2.97;69.41
75815;BME280;64451;45.574;14.224;2022-11-30T06:28:08;96882.91;;;2.91;69.04
75815;BME280;64451;45.574;14.224;2022-11-30T06:30:09;96877.91;;;2.95;68.89
75815;BME280;64451;45.574;14.224;2022-11-30T06:32:10;96885.16;;;2.99;69.08
75815;BME280;64451;45.574;14.224;2022-11-30T06:34:10;96893.53;;;2.91;69.77
75815;BME280;64451;45.574;14.224;2022-11-30T06:36:10;96880.13;;;2.86;69.87
75815;BME280;64451;45.574;14.224;2022-11-30T06:38:11;96891.09;;;2.90;70.12
75815;BME280;64451;45.574;14.224;2022-11-30T06:40:12;96885.06;;;2.94;70.28
75815;BME280;64451;45.574;14.224;2022-11-30T06:42:13;96910.72;;;2.89;70.32
75815;BME280;64451;45.574;14.224;2022-11-30T06:44:13;96895.13;;;2.92;69.89
75815;BME280;64451;45.574;14.224;2022-11-30T06:46:13;96900.91;;;2.89;69.94
75815;BME280;64451;45.574;14.224;2022-11-30T06:48:14;96914.41;;;2.99;69.90
75815;BME280;64451;45.574;14.224;2022-11-30T06:50:14;96906.75;;;3.03;70.15
75815;BME280;64451;45.574;14.224;2022-11-30T06:52:15;96906.38;;;2.83;71.40
75815;BME280;64451;45.574;14.224;2022-11-30T06:54:15;96916.22;;;2.82;71.26
75815;BME280;64451;45.574;14.224;2022-11-30T06:56:15;96907.88;;;2.90;70.99
75815;BME280;64451;45.574;14.224;2022-11-30T06:58:16;96889.81;;;2.92;70.98
75815;BME280;64451;45.574;14.224;2022-11-30T07:00:16;96900.22;;;2.94;71.15
75815;BME280;64451;45.574;14.224;2022-11-30T07:02:17;96898.03;;;2.91;71.47
75815;BME280;64451;45.574;14.224;2022-11-30T07:04:17;96909.94;;;2.88;71.85
75815;BME280;64451;45.574;14.224;2022-11-30T07:06:17;96889.25;;;2.90;72.02
75815;BME280;64451;45.574;14.224;2022-11-30T07:08:18;96899.78;;;2.85;72.24
75815;BME280;64451;45.574;14.224;2022-11-30T07:10:18;96900.72;;;2.79;73.37
75815;BME280;64451;45.574;14.224;2022-11-30T07:12:22;96902.19;;;2.87;71.90
75815;BME280;64451;45.574;14.224;2022-11-30T07:14:22;96902.53;;;2.90;72.56
75815;BME280;64451;45.574;14.224;2022-11-30T07:16:24;96894.94;;;2.82;73.07
75815;BME280;64451;45.574;14.224;2022-11-30T07:18:24;96910.41;;;2.85;73.02
75815;BME280;64451;45.574;14.224;2022-11-30T07:20:25;96896.06;;;2.86;72.35
75815;BME280;64451;45.574;14.224;2022-11-30T07:22:25;96882.69;;;2.81;73.35
75815;BME280;64451;45.574;14.224;2022-11-30T07:24:25;96880.88;;;2.70;74.16
75815;BME280;64451;45.574;14.224;2022-11-30T07:26:44;96882.22;;;2.84;73.92
75815;BME280;64451;45.574;14.224;2022-11-30T07:28:45;96889.78;;;2.75;73.44
75815;BME280;64451;45.574;14.224;2022-11-30T07:30:45;96892.72;;;2.91;72.66
75815;BME280;64451;45.574;14.224;2022-11-30T07:32:46;96887.19;;;2.80;74.68
75815;BME280;64451;45.574;14.224;2022-11-30T07:34:46;96871.72;;;2.77;73.82
75815;BME280;64451;45.574;14.224;2022-11-30T07:36:47;96877.59;;;2.79;74.10
75815;BME280;64451;45.574;14.224;2022-11-30T07:38:48;96869.19;;;2.83;74.01
75815;BME280;64451;45.574;14.224;2022-11-30T07:40:48;96876.28;;;2.94;73.25
75815;BME280;64451;45.574;14.224;2022-11-30T07:42:54;96889.16;;;2.85;73.94
75815;BME280;64451;45.574;14.224;2022-11-30T07:44:54;96882.16;;;2.96;72.98
75815;BME280;64451;45.574;14.224;2022-11-30T07:47:07;96873.94;;;2.97;73.02
75815;BME280;64451;45.574;14.224;2022-11-30T07:49:08;96880.41;;;3.01;72.95
75815;BME280;64451;45.574;14.224;2022-11-30T07:51:13;96883.31;;;3.00;72.39
75815;BME280;64451;45.574;14.224;2022-11-30T07:53:14;96895.31;;;3.02;72.60
75815;BME280;64451;45.574;14.224;2022-11-30T07:55:14;96892.75;;;3.07;72.07
75815;BME280;64451;45.574;14.224;2022-11-30T07:57:15;96891.72;;;3.08;72.72
75815;BME280;64451;45.574;14.224;2022-11-30T07:59:15;96903.47;;;3.13;72.00
75815;BME280;64451;45.574;14.224;2022-11-30T08:01:20;96902.66;;;3.12;72.33
75815;BME280;64451;45.574;14.224;2022-11-30T08:03:31;96913.66;;;3.16;72.38
75815;BME280;64451;45.574;14.224;2022-11-30T08:08:23;96923.00;;;3.18;70.88
75815;BME280;64451;45.574;14.224;2022-11-30T08:10:23;96904.47;;;3.23;72.30
75815;BME280;64451;45.574;14.224;2022-11-30T08:12:23;96927.91;;;3.26;71.38
75815;BME280;64451;45.574;14.224;2022-11-30T08:14:24;96910.66;;;3.29;71.60
75815;BME280;64451;45.574;14.224;2022-11-30T08:16:26;96927.13;;;3.26;71.23
75815;BME280;64451;45.574;14.224;2022-11-30T08:18:27;96926.97;;;3.32;71.94
75815;BME280;64451;45.574;14.224;2022-11-30T08:20:30;96922.91;;;3.30;71.69
75815;BME280;64451;45.574;14.224;2022-11-30T08:22:31;96921.16;;;3.35;72.07
75815;BME280;64451;45.574;14.224;2022-11-30T08:24:31;96923.50;;;3.32;71.95
75815;BME280;64451;45.574;14.224;2022-11-30T08:26:33;96920.84;;;3.32;72.50
75815;BME280;64451;45.574;14.224;2022-11-30T08:28:33;96923.34;;;3.38;72.55
75815;BME280;64451;45.574;14.224;2022-11-30T08:30:36;96922.94;;;3.47;71.54
75815;BME280;64451;45.574;14.224;2022-11-30T08:32:37;96923.75;;;3.47;70.56
75815;BME280;64451;45.574;14.224;2022-11-30T08:34:37;96917.88;;;3.45;70.87
75815;BME280;64451;45.574;14.224;2022-11-30T08:36:38;96925.38;;;3.48;70.66
75815;BME280;64451;45.574;14.224;2022-11-30T08:38:41;96919.00;;;3.49;70.62
75815;BME280;64451;45.574;14.224;2022-11-30T08:40:41;96915.84;;;3.52;70.74
75815;BME280;64451;45.574;14.224;2022-11-30T08:42:42;96927.06;;;3.54;69.75
75815;BME280;64451;45.574;14.224;2022-11-30T08:44:42;96898.59;;;3.55;70.06
75815;BME280;64451;45.574;14.224;2022-11-30T08:46:42;96909.81;;;3.57;69.81
75815;BME280;64451;45.574;14.224;2022-11-30T08:48:43;96907.22;;;3.62;68.94
75815;BME280;64451;45.574;14.224;2022-11-30T08:50:43;96923.59;;;3.71;68.55
75815;BME280;64451;45.574;14.224;2022-11-30T08:52:43;96935.69;;;3.78;69.07
75815;BME280;64451;45.574;14.224;2022-11-30T08:54:45;96930.63;;;3.77;69.39
75815;BME280;64451;45.574;14.224;2022-11-30T08:56:45;96925.59;;;3.80;68.26
75815;BME280;64451;45.574;14.224;2022-11-30T08:58:46;96921.28;;;3.91;67.85
75815;BME280;64451;45.574;14.224;2022-11-30T09:00:46;96931.13;;;3.90;67.38
75815;BME280;64451;45.574;14.224;2022-11-30T09:02:47;96945.22;;;3.91;68.91
75815;BME280;64451;45.574;14.224;2022-11-30T09:04:47;96935.38;;;3.91;68.35
75815;BME280;64451;45.574;14.224;2022-11-30T09:06:48;96947.94;;;3.96;68.08
75815;BME280;64451;45.574;14.224;2022-11-30T09:08:49;96927.53;;;4.02;67.77
75815;BME280;64451;45.574;14.224;2022-11-30T09:10:50;96926.03;;;4.06;66.85
75815;BME280;64451;45.574;14.224;2022-11-30T09:12:51;96944.41;;;4.07;66.88
75815;BME280;64451;45.574;14.224;2022-11-30T09:14:51;96933.44;;;4.04;67.44
75815;BME280;64451;45.574;14.224;2022-11-30T09:16:52;96924.38;;;4.05;66.50
75815;BME280;64451;45.574;14.224;2022-11-30T09:18:53;96916.41;;;4.05;67.80
75815;BME280;64451;45.574;14.224;2022-11-30T09:21:00;96905.53;;;4.06;67.82
75815;BME280;64451;45.574;14.224;2022-11-30T09:23:01;96905.19;;;4.03;67.22
75815;BME280;64451;45.574;14.224;2022-11-30T09:25:01;96918.03;;;4.06;65.33
75815;BME280;64451;45.574;14.224;2022-11-30T09:27:02;96915.13;;;4.07;66.86
75815;BME280;64451;45.574;14.224;2022-11-30T09:29:02;96914.63;;;4.10;67.38
75815;BME280;64451;45.574;14.224;2022-11-30T09:31:06;96929.00;;;4.09;66.58
75815;BME280;64451;45.574;14.224;2022-11-30T09:33:07;96932.75;;;4.13;66.09
75815;BME280;64451;45.574;14.224;2022-11-30T09:35:08;96918.38;;;4.31;67.08
75815;BME280;64451;45.574;14.224;2022-11-30T09:37:08;96923.56;;;4.21;66.42
75815;BME280;64451;45.574;14.224;2022-11-30T09:39:10;96923.38;;;4.28;66.96
75815;BME280;64451;45.574;14.224;2022-11-30T09:45:33;96887.56;;;4.18;65.49
75815;BME280;64451;45.574;14.224;2022-11-30T09:47:56;96882.88;;;4.26;65.09
75815;BME280;64451;45.574;14.224;2022-11-30T09:50:28;96913.44;;;4.40;65.52
75815;BME280;64451;45.574;14.224;2022-11-30T09:52:36;96902.53;;;4.41;64.84
75815;BME280;64451;45.574;14.224;2022-11-30T09:54:42;96899.63;;;4.43;65.15
75815;BME280;64451;45.574;14.224;2022-11-30T09:56:42;96896.69;;;4.44;65.55
75815;BME280;64451;45.574;14.224;2022-11-30T09:58:51;96908.09;;;4.40;63.91
75815;BME280;64451;45.574;14.224;2022-11-30T10:00:53;96912.84;;;4.38;64.76
75815;BME280;64451;45.574;14.224;2022-11-30T10:02:56;96921.44;;;4.40;65.81
75815;BME280;64451;45.574;14.224;2022-11-30T10:04:58;96908.09;;;4.40;66.08
75815;BME280;64451;45.574;14.224;2022-11-30T10:09:37;96917.88;;;4.34;66.16
75815;BME280;64451;45.574;14.224;2022-11-30T10:14:34;96907.94;;;4.30;65.86
75815;BME280;64451;45.574;14.224;2022-11-30T10:16:48;96910.69;;;4.35;64.54
75815;BME280;64451;45.574;14.224;2022-11-30T10:26:14;96888.69;;;4.44;64.75
75815;BME280;64451;45.574;14.224;2022-11-30T10:30:25;96911.25;;;4.37;65.35
75815;BME280;64451;45.574;14.224;2022-11-30T10:32:34;96880.16;;;4.42;65.38
75815;BME280;64451;45.574;14.224;2022-11-30T10:34:37;96894.28;;;4.43;65.32
75815;BME280;64451;45.574;14.224;2022-11-30T10:36:40;96895.88;;;4.44;64.43
75815;BME280;64451;45.574;14.224;2022-11-30T10:38:45;96885.22;;;4.44;65.89
75815;BME280;64451;45.574;14.224;2022-11-30T10:40:58;96892.69;;;4.42;66.68
75815;BME280;64451;45.574;14.224;2022-11-30T10:43:10;96874.75;;;4.37;65.00
75815;BME280;64451;45.574;14.224;2022-11-30T10:45:22;96890.09;;;4.47;65.43
75815;BME280;64451;45.574;14.224;2022-11-30T10:47:25;96892.44;;;4.43;65.27
75815;BME280;64451;45.574;14.224;2022-11-30T10:49:28;96878.91;;;4.50;64.93
75815;BME280;64451;45.574;14.224;2022-11-30T10:51:30;96867.56;;;4.60;65.35
75815;BME280;64451;45.574;14.224;2022-11-30T10:53:32;96874.22;;;4.57;64.87
75815;BME280;64451;45.574;14.224;2022-11-30T10:55:46;96873.16;;;4.58;64.41
75815;BME280;64451;45.574;14.224;2022-11-30T10:57:53;96881.06;;;4.53;64.71
75815;BME280;64451;45.574;14.224;2022-11-30T10:59:56;96872.53;;;4.51;65.13
75815;BME280;64451;45.574;14.224;2022-11-30T11:01:58;96865.34;;;4.51;64.59
75815;BME280;64451;45.574;14.224;2022-11-30T11:06:13;96866.25;;;4.62;64.10
75815;BME280;64451;45.574;14.224;2022-11-30T11:08:23;96862.09;;;4.71;64.93
75815;BME280;64451;45.574;14.224;2022-11-30T11:12:28;96873.53;;;4.67;64.69
75815;BME280;64451;45.574;14.224;2022-11-30T11:14:30;96853.81;;;4.68;64.40
75815;BME280;64451;45.574;14.224;2022-11-30T11:16:48;96841.22;;;4.63;63.70
75815;BME280;64451;45.574;14.224;2022-11-30T11:18:53;96843.88;;;4.63;64.12
75815;BME280;64451;45.574;14.224;2022-11-30T11:23:02;96858.63;;;4.71;65.49
75815;BME280;64451;45.574;14.224;2022-11-30T11:27:27;96853.34;;;4.49;65.45
75815;BME280;64451;45.574;14.224;2022-11-30T11:29:31;96857.59;;;4.50;66.68
75815;BME280;64451;45.574;14.224;2022-11-30T11:31:42;96855.81;;;4.56;65.54
75815;BME280;64451;45.574;14.224;2022-11-30T11:33:53;96846.63;;;4.46;64.80